sensor_id;sensor_type;location;lat;lon;timestamp;P1;durP1;ratioP1;P2;durP2;ratioP2
46653;SDS011;38960;51.074;17.004;2023-02-01T00:00:23;2.83;;;0.80;;
46653;SDS011;38960;51.074;17.004;2023-02-01T00:02:49;4.10;;;1.10;;
46653;SDS011;38960;51.074;17.004;2023-02-01T00:05:14;2.53;;;0.50;;
46653;SDS011;38960;51.074;17.004;2023-02-01T00:07:40;3.03;;;1.00;;
46653;SDS011;38960;51.074;17.004;2023-02-01T00:10:06;5.07;;;1.20;;
46653;SDS011;38960;51.074;17.004;2023-02-01T00:12:32;5.13;;;0.90;;
46653;SDS011;38960;51.074;17.004;2023-02-01T00:14:58;8.17;;;1.90;;
46653;SDS011;38960;51.074;17.004;2023-02-01T00:17:23;3.53;;;1.20;;
46653;SDS011;38960;51.074;17.004;2023-02-01T00:19:50;4.83;;;1.37;;
46653;SDS011;38960;51.074;17.004;2023-02-01T00:22:15;2.33;;;0.87;;
46653;SDS011;38960;51.074;17.004;2023-02-01T00:24:41;3.70;;;1.13;;
46653;SDS011;38960;51.074;17.004;2023-02-01T00:27:06;5.10;;;1.03;;
46653;SDS011;38960;51.074;17.004;2023-02-01T00:29:32;4.10;;;0.90;;
46653;SDS011;38960;51.074;17.004;2023-02-01T00:31:57;4.27;;;0.93;;
46653;SDS011;38960;51.074;17.004;2023-02-01T00:34:23;3.43;;;1.13;;
46653;SDS011;38960;51.074;17.004;2023-02-01T00:36:49;2.83;;;1.10;;
46653;SDS011;38960;51.074;17.004;2023-02-01T00:39:14;1.80;;;1.03;;
46653;SDS011;38960;51.074;17.004;2023-02-01T00:41:40;3.07;;;0.67;;
46653;SDS011;38960;51.074;17.004;2023-02-01T00:44:06;3.17;;;1.00;;
46653;SDS011;38960;51.074;17.004;2023-02-01T00:46:31;1.83;;;0.80;;
46653;SDS011;38960;51.074;17.004;2023-02-01T00:48:57;3.57;;;0.97;;
46653;SDS011;38960;51.074;17.004;2023-02-01T00:51:24;5.37;;;0.93;;
46653;SDS011;38960;51.074;17.004;2023-02-01T00:53:52;1.97;;;1.00;;
46653;SDS011;38960;51.074;17.004;2023-02-01T00:56:18;2.67;;;1.03;;
46653;SDS011;38960;51.074;17.004;2023-02-01T00:58:44;6.67;;;2.00;;
46653;SDS011;38960;51.074;17.004;2023-02-01T01:01:17;2.03;;;0.87;;
46653;SDS011;38960;51.074;17.004;2023-02-01T01:03:46;2.07;;;0.90;;
46653;SDS011;38960;51.074;17.004;2023-02-01T01:08:43;3.77;;;1.10;;
46653;SDS011;38960;51.074;17.004;2023-02-01T01:11:11;5.03;;;1.57;;
46653;SDS011;38960;51.074;17.004;2023-02-01T01:13:45;4.10;;;1.57;;
46653;SDS011;38960;51.074;17.004;2023-02-01T01:16:14;4.32;;;1.48;;
46653;SDS011;38960;51.074;17.004;2023-02-01T01:18:40;6.73;;;1.53;;
46653;SDS011;38960;51.074;17.004;2023-02-01T01:21:07;5.80;;;1.43;;
46653;SDS011;38960;51.074;17.004;2023-02-01T01:23:33;8.23;;;1.77;;
46653;SDS011;38960;51.074;17.004;2023-02-01T01:26:00;5.90;;;2.10;;
46653;SDS011;38960;51.074;17.004;2023-02-01T01:28:25;5.03;;;1.80;;
46653;SDS011;38960;51.074;17.004;2023-02-01T01:30:51;5.17;;;1.93;;
46653;SDS011;38960;51.074;17.004;2023-02-01T01:33:17;3.07;;;1.40;;
46653;SDS011;38960;51.074;17.004;2023-02-01T01:35:43;3.83;;;1.40;;
46653;SDS011;38960;51.074;17.004;2023-02-01T01:38:09;6.87;;;1.33;;
46653;SDS011;38960;51.074;17.004;2023-02-01T01:40:35;5.83;;;1.33;;
46653;SDS011;38960;51.074;17.004;2023-02-01T01:43:00;4.13;;;1.13;;
46653;SDS011;38960;51.074;17.004;2023-02-01T01:45:33;3.90;;;0.83;;
46653;SDS011;38960;51.074;17.004;2023-02-01T01:48:01;3.00;;;1.10;;
46653;SDS011;38960;51.074;17.004;2023-02-01T01:53:03;1.63;;;0.90;;
46653;SDS011;38960;51.074;17.004;2023-02-01T01:55:31;4.03;;;1.50;;
46653;SDS011;38960;51.074;17.004;2023-02-01T01:58:02;4.57;;;1.30;;
46653;SDS011;38960;51.074;17.004;2023-02-01T02:00:31;5.13;;;1.40;;
46653;SDS011;38960;51.074;17.004;2023-02-01T02:02:59;6.63;;;1.40;;
46653;SDS011;38960;51.074;17.004;2023-02-01T02:05:28;5.80;;;1.73;;
46653;SDS011;38960;51.074;17.004;2023-02-01T02:07:55;6.40;;;1.83;;
46653;SDS011;38960;51.074;17.004;2023-02-01T02:10:22;5.60;;;1.70;;
46653;SDS011;38960;51.074;17.004;2023-02-01T02:13:08;6.27;;;2.13;;
46653;SDS011;38960;51.074;17.004;2023-02-01T02:15:34;4.70;;;1.63;;
46653;SDS011;38960;51.074;17.004;2023-02-01T02:21:02;8.03;;;1.80;;
46653;SDS011;38960;51.074;17.004;2023-02-01T02:26:26;5.70;;;1.90;;
46653;SDS011;38960;51.074;17.004;2023-02-01T02:37:10;9.57;;;2.42;;
46653;SDS011;38960;51.074;17.004;2023-02-01T02:53:32;11.47;;;2.63;;
46653;SDS011;38960;51.074;17.004;2023-02-01T02:56:20;9.57;;;2.43;;
46653;SDS011;38960;51.074;17.004;2023-02-01T02:59:06;9.20;;;2.13;;
46653;SDS011;38960;51.074;17.004;2023-02-01T03:01:51;10.80;;;2.40;;
46653;SDS011;38960;51.074;17.004;2023-02-01T03:04:36;10.57;;;2.20;;
46653;SDS011;38960;51.074;17.004;2023-02-01T03:07:13;12.23;;;2.87;;
46653;SDS011;38960;51.074;17.004;2023-02-01T03:09:41;12.57;;;2.90;;
46653;SDS011;38960;51.074;17.004;2023-02-01T03:12:11;11.83;;;2.83;;
46653;SDS011;38960;51.074;17.004;2023-02-01T03:15:16;8.10;;;2.07;;
46653;SDS011;38960;51.074;17.004;2023-02-01T03:17:43;13.43;;;2.47;;
46653;SDS011;38960;51.074;17.004;2023-02-01T03:20:10;8.97;;;2.40;;
46653;SDS011;38960;51.074;17.004;2023-02-01T03:22:39;12.37;;;2.57;;
46653;SDS011;38960;51.074;17.004;2023-02-01T03:25:07;8.03;;;2.43;;
46653;SDS011;38960;51.074;17.004;2023-02-01T03:30:18;8.17;;;2.73;;
46653;SDS011;38960;51.074;17.004;2023-02-01T03:32:47;9.50;;;2.07;;
46653;SDS011;38960;51.074;17.004;2023-02-01T03:35:29;9.63;;;3.30;;
46653;SDS011;38960;51.074;17.004;2023-02-01T03:40:55;13.37;;;2.83;;
46653;SDS011;38960;51.074;17.004;2023-02-01T03:43:24;9.60;;;2.87;;
46653;SDS011;38960;51.074;17.004;2023-02-01T03:45:54;13.03;;;3.27;;
46653;SDS011;38960;51.074;17.004;2023-02-01T03:48:24;12.33;;;2.37;;
46653;SDS011;38960;51.074;17.004;2023-02-01T03:50:52;12.60;;;2.93;;
46653;SDS011;38960;51.074;17.004;2023-02-01T03:53:20;12.70;;;2.37;;
46653;SDS011;38960;51.074;17.004;2023-02-01T03:55:48;12.63;;;2.37;;
46653;SDS011;38960;51.074;17.004;2023-02-01T03:58:22;12.00;;;3.43;;
46653;SDS011;38960;51.074;17.004;2023-02-01T04:00:53;9.07;;;2.73;;
46653;SDS011;38960;51.074;17.004;2023-02-01T04:03:19;11.53;;;4.03;;
46653;SDS011;38960;51.074;17.004;2023-02-01T04:05:47;10.80;;;2.83;;
46653;SDS011;38960;51.074;17.004;2023-02-01T04:08:17;13.17;;;2.97;;
46653;SDS011;38960;51.074;17.004;2023-02-01T04:10:44;10.60;;;2.63;;
46653;SDS011;38960;51.074;17.004;2023-02-01T04:13:11;9.30;;;2.40;;
46653;SDS011;38960;51.074;17.004;2023-02-01T04:15:36;9.87;;;2.57;;
46653;SDS011;38960;51.074;17.004;2023-02-01T04:18:02;9.57;;;2.37;;
46653;SDS011;38960;51.074;17.004;2023-02-01T04:20:28;11.60;;;2.70;;
46653;SDS011;38960;51.074;17.004;2023-02-01T04:22:53;11.03;;;2.50;;
46653;SDS011;38960;51.074;17.004;2023-02-01T04:25:19;10.00;;;2.47;;
46653;SDS011;38960;51.074;17.004;2023-02-01T04:27:46;9.27;;;2.40;;
46653;SDS011;38960;51.074;17.004;2023-02-01T04:30:12;11.17;;;2.50;;
46653;SDS011;38960;51.074;17.004;2023-02-01T04:32:38;11.63;;;3.87;;
46653;SDS011;38960;51.074;17.004;2023-02-01T04:35:04;12.80;;;3.63;;
46653;SDS011;38960;51.074;17.004;2023-02-01T04:37:30;15.63;;;4.23;;
46653;SDS011;38960;51.074;17.004;2023-02-01T04:39:56;10.43;;;2.57;;
46653;SDS011;38960;51.074;17.004;2023-02-01T04:42:21;11.87;;;2.77;;
46653;SDS011;38960;51.074;17.004;2023-02-01T04:44:47;15.97;;;4.57;;
46653;SDS011;38960;51.074;17.004;2023-02-01T04:47:12;11.13;;;3.40;;
46653;SDS011;38960;51.074;17.004;2023-02-01T04:49:39;12.40;;;2.70;;
46653;SDS011;38960;51.074;17.004;2023-02-01T04:52:05;11.53;;;3.23;;
46653;SDS011;38960;51.074;17.004;2023-02-01T04:54:30;10.50;;;2.73;;
46653;SDS011;38960;51.074;17.004;2023-02-01T04:56:56;11.77;;;3.00;;
46653;SDS011;38960;51.074;17.004;2023-02-01T04:59:21;11.63;;;2.70;;
46653;SDS011;38960;51.074;17.004;2023-02-01T05:01:47;14.17;;;5.40;;
46653;SDS011;38960;51.074;17.004;2023-02-01T05:04:12;14.20;;;3.87;;
46653;SDS011;38960;51.074;17.004;2023-02-01T05:06:38;12.37;;;2.83;;
46653;SDS011;38960;51.074;17.004;2023-02-01T05:09:03;21.93;;;6.93;;
46653;SDS011;38960;51.074;17.004;2023-02-01T05:11:29;12.63;;;3.20;;
46653;SDS011;38960;51.074;17.004;2023-02-01T05:14:13;14.63;;;2.93;;
46653;SDS011;38960;51.074;17.004;2023-02-01T05:16:39;13.03;;;2.87;;
46653;SDS011;38960;51.074;17.004;2023-02-01T05:19:05;10.77;;;2.83;;
46653;SDS011;38960;51.074;17.004;2023-02-01T05:21:30;16.13;;;5.53;;
46653;SDS011;38960;51.074;17.004;2023-02-01T05:23:56;13.90;;;3.60;;
46653;SDS011;38960;51.074;17.004;2023-02-01T05:26:45;13.00;;;3.37;;
46653;SDS011;38960;51.074;17.004;2023-02-01T05:29:11;13.30;;;2.80;;
46653;SDS011;38960;51.074;17.004;2023-02-01T05:31:37;11.47;;;3.00;;
46653;SDS011;38960;51.074;17.004;2023-02-01T05:34:02;15.03;;;4.03;;
46653;SDS011;38960;51.074;17.004;2023-02-01T05:36:28;13.73;;;3.70;;
46653;SDS011;38960;51.074;17.004;2023-02-01T05:38:54;13.27;;;2.97;;
46653;SDS011;38960;51.074;17.004;2023-02-01T05:41:19;8.03;;;2.70;;
46653;SDS011;38960;51.074;17.004;2023-02-01T05:43:45;13.67;;;3.77;;
46653;SDS011;38960;51.074;17.004;2023-02-01T05:46:10;16.10;;;3.57;;
46653;SDS011;38960;51.074;17.004;2023-02-01T05:48:38;12.47;;;2.90;;
46653;SDS011;38960;51.074;17.004;2023-02-01T05:51:04;11.70;;;2.73;;
46653;SDS011;38960;51.074;17.004;2023-02-01T05:53:30;11.50;;;2.90;;
46653;SDS011;38960;51.074;17.004;2023-02-01T05:55:55;13.03;;;3.30;;
46653;SDS011;38960;51.074;17.004;2023-02-01T05:58:21;12.70;;;3.30;;
46653;SDS011;38960;51.074;17.004;2023-02-01T06:00:46;10.20;;;3.10;;
46653;SDS011;38960;51.074;17.004;2023-02-01T06:03:12;15.57;;;2.97;;
46653;SDS011;38960;51.074;17.004;2023-02-01T06:05:37;13.77;;;3.07;;
46653;SDS011;38960;51.074;17.004;2023-02-01T06:08:03;8.83;;;2.70;;
46653;SDS011;38960;51.074;17.004;2023-02-01T06:10:29;13.97;;;3.50;;
46653;SDS011;38960;51.074;17.004;2023-02-01T06:12:54;14.87;;;3.20;;
46653;SDS011;38960;51.074;17.004;2023-02-01T06:15:20;15.53;;;3.67;;
46653;SDS011;38960;51.074;17.004;2023-02-01T06:17:46;10.53;;;3.10;;
46653;SDS011;38960;51.074;17.004;2023-02-01T06:20:12;10.13;;;3.00;;
46653;SDS011;38960;51.074;17.004;2023-02-01T06:22:39;13.20;;;3.40;;
46653;SDS011;38960;51.074;17.004;2023-02-01T06:25:05;16.67;;;2.90;;
46653;SDS011;38960;51.074;17.004;2023-02-01T06:27:32;17.57;;;3.17;;
46653;SDS011;38960;51.074;17.004;2023-02-01T06:29:58;10.83;;;3.20;;
46653;SDS011;38960;51.074;17.004;2023-02-01T06:32:24;12.00;;;3.10;;
46653;SDS011;38960;51.074;17.004;2023-02-01T06:34:50;13.57;;;3.37;;
46653;SDS011;38960;51.074;17.004;2023-02-01T06:37:18;11.07;;;3.17;;
46653;SDS011;38960;51.074;17.004;2023-02-01T06:39:44;11.27;;;3.73;;
46653;SDS011;38960;51.074;17.004;2023-02-01T06:42:09;10.63;;;3.07;;
46653;SDS011;38960;51.074;17.004;2023-02-01T06:44:35;12.67;;;3.53;;
46653;SDS011;38960;51.074;17.004;2023-02-01T06:47:01;9.43;;;2.90;;
46653;SDS011;38960;51.074;17.004;2023-02-01T06:49:28;13.03;;;3.13;;
46653;SDS011;38960;51.074;17.004;2023-02-01T06:51:54;10.23;;;2.57;;
46653;SDS011;38960;51.074;17.004;2023-02-01T06:54:19;7.43;;;2.80;;
46653;SDS011;38960;51.074;17.004;2023-02-01T06:56:45;11.80;;;2.97;;
46653;SDS011;38960;51.074;17.004;2023-02-01T06:59:10;14.13;;;3.23;;
46653;SDS011;38960;51.074;17.004;2023-02-01T07:01:36;13.53;;;2.90;;
46653;SDS011;38960;51.074;17.004;2023-02-01T07:04:02;11.27;;;2.77;;
46653;SDS011;38960;51.074;17.004;2023-02-01T07:06:28;10.13;;;2.80;;
46653;SDS011;38960;51.074;17.004;2023-02-01T07:08:53;9.37;;;3.10;;
46653;SDS011;38960;51.074;17.004;2023-02-01T07:11:22;10.93;;;2.77;;
46653;SDS011;38960;51.074;17.004;2023-02-01T07:13:48;11.07;;;3.33;;
46653;SDS011;38960;51.074;17.004;2023-02-01T07:16:14;9.93;;;2.63;;
46653;SDS011;38960;51.074;17.004;2023-02-01T07:18:41;6.77;;;2.73;;
46653;SDS011;38960;51.074;17.004;2023-02-01T07:21:07;18.47;;;3.03;;
46653;SDS011;38960;51.074;17.004;2023-02-01T07:23:32;10.40;;;2.73;;
46653;SDS011;38960;51.074;17.004;2023-02-01T07:25:59;9.90;;;2.70;;
46653;SDS011;38960;51.074;17.004;2023-02-01T07:28:27;9.47;;;2.47;;
46653;SDS011;38960;51.074;17.004;2023-02-01T07:30:53;11.43;;;2.70;;
46653;SDS011;38960;51.074;17.004;2023-02-01T07:33:20;12.70;;;3.00;;
46653;SDS011;38960;51.074;17.004;2023-02-01T07:35:46;12.33;;;2.27;;
46653;SDS011;38960;51.074;17.004;2023-02-01T07:38:13;12.50;;;3.40;;
46653;SDS011;38960;51.074;17.004;2023-02-01T07:40:39;13.37;;;2.80;;
46653;SDS011;38960;51.074;17.004;2023-02-01T07:43:04;7.33;;;2.57;;
46653;SDS011;38960;51.074;17.004;2023-02-01T07:45:31;10.40;;;2.80;;
46653;SDS011;38960;51.074;17.004;2023-02-01T07:47:57;13.33;;;3.20;;
46653;SDS011;38960;51.074;17.004;2023-02-01T07:50:22;12.57;;;2.83;;
46653;SDS011;38960;51.074;17.004;2023-02-01T07:52:48;10.47;;;2.73;;
46653;SDS011;38960;51.074;17.004;2023-02-01T07:55:13;14.87;;;2.90;;
46653;SDS011;38960;51.074;17.004;2023-02-01T07:57:39;9.07;;;2.93;;
46653;SDS011;38960;51.074;17.004;2023-02-01T08:00:04;11.03;;;3.30;;
46653;SDS011;38960;51.074;17.004;2023-02-01T08:02:49;13.87;;;3.97;;
46653;SDS011;38960;51.074;17.004;2023-02-01T08:05:15;11.30;;;2.50;;
46653;SDS011;38960;51.074;17.004;2023-02-01T08:07:40;18.47;;;3.43;;
46653;SDS011;38960;51.074;17.004;2023-02-01T08:10:06;9.73;;;2.63;;
46653;SDS011;38960;51.074;17.004;2023-02-01T08:12:36;14.20;;;2.90;;
46653;SDS011;38960;51.074;17.004;2023-02-01T08:15:02;13.90;;;2.90;;
46653;SDS011;38960;51.074;17.004;2023-02-01T08:17:28;11.70;;;3.13;;
46653;SDS011;38960;51.074;17.004;2023-02-01T08:19:54;7.77;;;2.67;;
46653;SDS011;38960;51.074;17.004;2023-02-01T08:22:20;12.97;;;3.20;;
46653;SDS011;38960;51.074;17.004;2023-02-01T08:24:49;9.93;;;2.97;;
46653;SDS011;38960;51.074;17.004;2023-02-01T08:27:14;10.93;;;3.13;;
46653;SDS011;38960;51.074;17.004;2023-02-01T08:29:40;13.20;;;2.80;;
46653;SDS011;38960;51.074;17.004;2023-02-01T08:32:06;10.63;;;2.90;;
46653;SDS011;38960;51.074;17.004;2023-02-01T08:34:32;9.77;;;2.90;;
46653;SDS011;38960;51.074;17.004;2023-02-01T08:36:57;13.23;;;3.23;;
46653;SDS011;38960;51.074;17.004;2023-02-01T08:39:26;10.90;;;2.67;;
46653;SDS011;38960;51.074;17.004;2023-02-01T08:41:51;9.47;;;2.83;;
46653;SDS011;38960;51.074;17.004;2023-02-01T08:44:35;9.27;;;2.97;;
46653;SDS011;38960;51.074;17.004;2023-02-01T08:47:02;12.17;;;3.73;;
46653;SDS011;38960;51.074;17.004;2023-02-01T08:49:28;13.53;;;3.23;;
46653;SDS011;38960;51.074;17.004;2023-02-01T08:51:54;12.50;;;3.13;;
46653;SDS011;38960;51.074;17.004;2023-02-01T08:54:20;13.73;;;3.07;;
46653;SDS011;38960;51.074;17.004;2023-02-01T08:56:46;16.30;;;3.13;;
46653;SDS011;38960;51.074;17.004;2023-02-01T08:59:12;12.10;;;3.47;;
46653;SDS011;38960;51.074;17.004;2023-02-01T09:01:37;11.87;;;2.80;;
46653;SDS011;38960;51.074;17.004;2023-02-01T09:04:03;9.93;;;2.63;;
46653;SDS011;38960;51.074;17.004;2023-02-01T09:06:28;13.10;;;2.53;;
46653;SDS011;38960;51.074;17.004;2023-02-01T09:08:54;12.97;;;3.20;;
46653;SDS011;38960;51.074;17.004;2023-02-01T09:11:20;12.17;;;3.20;;
46653;SDS011;38960;51.074;17.004;2023-02-01T09:13:46;13.30;;;3.20;;
46653;SDS011;38960;51.074;17.004;2023-02-01T09:16:13;10.97;;;2.83;;
46653;SDS011;38960;51.074;17.004;2023-02-01T09:18:38;7.60;;;2.73;;
46653;SDS011;38960;51.074;17.004;2023-02-01T09:21:05;12.13;;;3.00;;
46653;SDS011;38960;51.074;17.004;2023-02-01T09:23:31;11.73;;;2.50;;
46653;SDS011;38960;51.074;17.004;2023-02-01T09:26:00;11.87;;;2.93;;
46653;SDS011;38960;51.074;17.004;2023-02-01T09:28:27;8.00;;;2.57;;
46653;SDS011;38960;51.074;17.004;2023-02-01T09:30:56;6.23;;;2.50;;
46653;SDS011;38960;51.074;17.004;2023-02-01T09:33:23;9.13;;;2.60;;
46653;SDS011;38960;51.074;17.004;2023-02-01T09:36:10;8.83;;;2.23;;
46653;SDS011;38960;51.074;17.004;2023-02-01T09:38:36;8.27;;;2.40;;
46653;SDS011;38960;51.074;17.004;2023-02-01T09:41:06;6.13;;;2.27;;
46653;SDS011;38960;51.074;17.004;2023-02-01T09:44:01;5.43;;;2.13;;
46653;SDS011;38960;51.074;17.004;2023-02-01T09:46:33;5.55;;;1.80;;
46653;SDS011;38960;51.074;17.004;2023-02-01T09:49:01;7.32;;;2.28;;
46653;SDS011;38960;51.074;17.004;2023-02-01T09:51:33;5.70;;;2.30;;
46653;SDS011;38960;51.074;17.004;2023-02-01T09:56:42;5.60;;;2.10;;
46653;SDS011;38960;51.074;17.004;2023-02-01T10:01:47;6.35;;;1.90;;
46653;SDS011;38960;51.074;17.004;2023-02-01T10:04:13;5.25;;;1.70;;
46653;SDS011;38960;51.074;17.004;2023-02-01T10:17:20;7.00;;;2.63;;
46653;SDS011;38960;51.074;17.004;2023-02-01T10:22:36;6.30;;;2.03;;
46653;SDS011;38960;51.074;17.004;2023-02-01T10:27:47;7.30;;;2.20;;
46653;SDS011;38960;51.074;17.004;2023-02-01T10:30:23;8.80;;;2.30;;
46653;SDS011;38960;51.074;17.004;2023-02-01T10:33:01;9.10;;;2.80;;
46653;SDS011;38960;51.074;17.004;2023-02-01T10:35:39;6.70;;;2.40;;
46653;SDS011;38960;51.074;17.004;2023-02-01T10:38:25;8.23;;;2.53;;
46653;SDS011;38960;51.074;17.004;2023-02-01T10:40:53;10.00;;;3.20;;
46653;SDS011;38960;51.074;17.004;2023-02-01T10:43:21;7.32;;;2.10;;
46653;SDS011;38960;51.074;17.004;2023-02-01T10:45:47;7.25;;;2.03;;
46653;SDS011;38960;51.074;17.004;2023-02-01T10:48:12;5.82;;;2.28;;
46653;SDS011;38960;51.074;17.004;2023-02-01T10:50:55;8.30;;;2.40;;
46653;SDS011;38960;51.074;17.004;2023-02-01T10:53:24;7.73;;;2.57;;
46653;SDS011;38960;51.074;17.004;2023-02-01T10:55:54;7.25;;;2.50;;
46653;SDS011;38960;51.074;17.004;2023-02-01T10:58:28;8.53;;;2.97;;
46653;SDS011;38960;51.074;17.004;2023-02-01T11:01:02;8.10;;;2.60;;
46653;SDS011;38960;51.074;17.004;2023-02-01T11:03:40;8.75;;;2.15;;
46653;SDS011;38960;51.074;17.004;2023-02-01T11:09:10;7.63;;;2.38;;
46653;SDS011;38960;51.074;17.004;2023-02-01T11:14:26;10.82;;;2.67;;
46653;SDS011;38960;51.074;17.004;2023-02-01T11:17:00;7.35;;;1.95;;
46653;SDS011;38960;51.074;17.004;2023-02-01T11:19:27;8.35;;;2.65;;
46653;SDS011;38960;51.074;17.004;2023-02-01T11:21:54;5.15;;;2.08;;
46653;SDS011;38960;51.074;17.004;2023-02-01T11:24:22;5.15;;;2.10;;
46653;SDS011;38960;51.074;17.004;2023-02-01T11:26:57;8.10;;;2.17;;
46653;SDS011;38960;51.074;17.004;2023-02-01T11:29:23;7.40;;;2.53;;
46653;SDS011;38960;51.074;17.004;2023-02-01T11:31:57;7.30;;;2.33;;
46653;SDS011;38960;51.074;17.004;2023-02-01T11:34:25;3.58;;;1.67;;
46653;SDS011;38960;51.074;17.004;2023-02-01T11:36:53;3.80;;;1.60;;
46653;SDS011;38960;51.074;17.004;2023-02-01T11:39:33;4.43;;;1.80;;
46653;SDS011;38960;51.074;17.004;2023-02-01T11:42:13;4.05;;;1.55;;
46653;SDS011;38960;51.074;17.004;2023-02-01T11:44:41;4.20;;;1.90;;
46653;SDS011;38960;51.074;17.004;2023-02-01T11:49:46;5.05;;;1.77;;
46653;SDS011;38960;51.074;17.004;2023-02-01T11:55:29;5.60;;;1.90;;
46653;SDS011;38960;51.074;17.004;2023-02-01T12:06:57;5.17;;;1.80;;
46653;SDS011;38960;51.074;17.004;2023-02-01T12:12:29;4.53;;;1.80;;
46653;SDS011;38960;51.074;17.004;2023-02-01T12:15:14;5.17;;;1.90;;
46653;SDS011;38960;51.074;17.004;2023-02-01T12:23:55;3.28;;;1.73;;
46653;SDS011;38960;51.074;17.004;2023-02-01T12:26:38;5.30;;;1.88;;
46653;SDS011;38960;51.074;17.004;2023-02-01T12:37:02;3.23;;;1.50;;
46653;SDS011;38960;51.074;17.004;2023-02-01T12:45:14;3.00;;;1.52;;
46653;SDS011;38960;51.074;17.004;2023-02-01T12:47:57;3.23;;;1.77;;
46653;SDS011;38960;51.074;17.004;2023-02-01T12:50:43;3.35;;;2.00;;
46653;SDS011;38960;51.074;17.004;2023-02-01T12:53:14;6.17;;;2.40;;
46653;SDS011;38960;51.074;17.004;2023-02-01T12:55:47;5.68;;;2.85;;
46653;SDS011;38960;51.074;17.004;2023-02-01T12:58:17;4.07;;;1.90;;
46653;SDS011;38960;51.074;17.004;2023-02-01T13:00:52;4.87;;;2.13;;
46653;SDS011;38960;51.074;17.004;2023-02-01T13:03:33;5.97;;;1.70;;
46653;SDS011;38960;51.074;17.004;2023-02-01T13:06:12;3.50;;;1.70;;
46653;SDS011;38960;51.074;17.004;2023-02-01T13:14:11;5.53;;;2.60;;
46653;SDS011;38960;51.074;17.004;2023-02-01T13:16:56;5.47;;;1.67;;
46653;SDS011;38960;51.074;17.004;2023-02-01T13:21:58;4.40;;;1.70;;
46653;SDS011;38960;51.074;17.004;2023-02-01T13:27:13;3.80;;;1.60;;
46653;SDS011;38960;51.074;17.004;2023-02-01T13:29:50;8.95;;;2.05;;
46653;SDS011;38960;51.074;17.004;2023-02-01T13:35:03;6.07;;;1.92;;
46653;SDS011;38960;51.074;17.004;2023-02-01T13:43:06;3.83;;;1.67;;
46653;SDS011;38960;51.074;17.004;2023-02-01T13:45:37;7.18;;;2.30;;
46653;SDS011;38960;51.074;17.004;2023-02-01T13:48:14;2.55;;;1.60;;
46653;SDS011;38960;51.074;17.004;2023-02-01T13:50:49;5.22;;;1.90;;
46653;SDS011;38960;51.074;17.004;2023-02-01T13:53:18;3.75;;;1.40;;
46653;SDS011;38960;51.074;17.004;2023-02-01T13:56:11;13.55;;;6.35;;
46653;SDS011;38960;51.074;17.004;2023-02-01T13:58:44;9.35;;;5.15;;
46653;SDS011;38960;51.074;17.004;2023-02-01T14:03:46;7.50;;;3.13;;
46653;SDS011;38960;51.074;17.004;2023-02-01T14:09:11;4.30;;;1.80;;
46653;SDS011;38960;51.074;17.004;2023-02-01T14:16:44;7.63;;;2.42;;
46653;SDS011;38960;51.074;17.004;2023-02-01T14:19:34;6.93;;;1.95;;
46653;SDS011;38960;51.074;17.004;2023-02-01T14:22:01;6.47;;;1.70;;
46653;SDS011;38960;51.074;17.004;2023-02-01T14:24:52;6.90;;;2.10;;
46653;SDS011;38960;51.074;17.004;2023-02-01T14:27:26;4.53;;;1.90;;
46653;SDS011;38960;51.074;17.004;2023-02-01T14:29:56;4.15;;;2.10;;
46653;SDS011;38960;51.074;17.004;2023-02-01T14:32:36;5.53;;;2.25;;
46653;SDS011;38960;51.074;17.004;2023-02-01T14:35:23;5.10;;;1.90;;
46653;SDS011;38960;51.074;17.004;2023-02-01T14:37:51;6.35;;;2.30;;
46653;SDS011;38960;51.074;17.004;2023-02-01T14:40:25;9.77;;;3.70;;
46653;SDS011;38960;51.074;17.004;2023-02-01T14:42:52;7.07;;;2.95;;
46653;SDS011;38960;51.074;17.004;2023-02-01T14:56:16;11.02;;;2.75;;
46653;SDS011;38960;51.074;17.004;2023-02-01T15:01:49;8.68;;;2.20;;
46653;SDS011;38960;51.074;17.004;2023-02-01T15:04:18;8.50;;;2.30;;
46653;SDS011;38960;51.074;17.004;2023-02-01T15:07:04;6.88;;;2.88;;
46653;SDS011;38960;51.074;17.004;2023-02-01T15:14:42;6.65;;;1.85;;
46653;SDS011;38960;51.074;17.004;2023-02-01T15:17:30;7.80;;;2.08;;
46653;SDS011;38960;51.074;17.004;2023-02-01T15:20:04;6.57;;;2.00;;
46653;SDS011;38960;51.074;17.004;2023-02-01T15:22:38;5.20;;;1.90;;
46653;SDS011;38960;51.074;17.004;2023-02-01T15:25:03;5.38;;;2.55;;
46653;SDS011;38960;51.074;17.004;2023-02-01T15:27:29;7.20;;;2.35;;
46653;SDS011;38960;51.074;17.004;2023-02-01T15:30:16;6.85;;;2.53;;
46653;SDS011;38960;51.074;17.004;2023-02-01T15:32:46;7.90;;;2.77;;
46653;SDS011;38960;51.074;17.004;2023-02-01T15:41:13;7.55;;;2.85;;
46653;SDS011;38960;51.074;17.004;2023-02-01T15:43:45;9.63;;;3.17;;
46653;SDS011;38960;51.074;17.004;2023-02-01T15:46:17;10.07;;;3.15;;
46653;SDS011;38960;51.074;17.004;2023-02-01T15:48:47;9.25;;;2.97;;
46653;SDS011;38960;51.074;17.004;2023-02-01T15:51:20;9.40;;;3.20;;
46653;SDS011;38960;51.074;17.004;2023-02-01T15:53:52;6.03;;;2.20;;
46653;SDS011;38960;51.074;17.004;2023-02-01T15:56:23;12.32;;;2.42;;
46653;SDS011;38960;51.074;17.004;2023-02-01T15:59:00;7.60;;;2.38;;
46653;SDS011;38960;51.074;17.004;2023-02-01T16:01:27;9.68;;;3.13;;
46653;SDS011;38960;51.074;17.004;2023-02-01T16:06:56;6.53;;;2.60;;
46653;SDS011;38960;51.074;17.004;2023-02-01T16:09:34;4.85;;;2.53;;
46653;SDS011;38960;51.074;17.004;2023-02-01T16:12:03;4.78;;;2.25;;
46653;SDS011;38960;51.074;17.004;2023-02-01T16:14:29;5.07;;;2.57;;
46653;SDS011;38960;51.074;17.004;2023-02-01T16:16:56;7.37;;;2.87;;
46653;SDS011;38960;51.074;17.004;2023-02-01T16:19:23;4.57;;;2.10;;
46653;SDS011;38960;51.074;17.004;2023-02-01T16:21:53;5.30;;;2.00;;
46653;SDS011;38960;51.074;17.004;2023-02-01T16:24:19;5.53;;;2.60;;
46653;SDS011;38960;51.074;17.004;2023-02-01T16:26:47;6.63;;;3.33;;
46653;SDS011;38960;51.074;17.004;2023-02-01T16:29:12;6.28;;;3.30;;
46653;SDS011;38960;51.074;17.004;2023-02-01T16:31:40;6.30;;;2.50;;
46653;SDS011;38960;51.074;17.004;2023-02-01T16:34:06;8.02;;;3.42;;
46653;SDS011;38960;51.074;17.004;2023-02-01T16:36:32;6.70;;;3.90;;
46653;SDS011;38960;51.074;17.004;2023-02-01T16:38:58;10.10;;;3.85;;
46653;SDS011;38960;51.074;17.004;2023-02-01T16:41:24;10.53;;;4.50;;
46653;SDS011;38960;51.074;17.004;2023-02-01T16:43:51;11.38;;;4.28;;
46653;SDS011;38960;51.074;17.004;2023-02-01T16:46:18;11.52;;;4.72;;
46653;SDS011;38960;51.074;17.004;2023-02-01T16:49:05;7.68;;;3.95;;
46653;SDS011;38960;51.074;17.004;2023-02-01T16:51:44;9.43;;;3.50;;
46653;SDS011;38960;51.074;17.004;2023-02-01T16:54:10;7.67;;;3.93;;
46653;SDS011;38960;51.074;17.004;2023-02-01T16:56:35;10.10;;;4.10;;
46653;SDS011;38960;51.074;17.004;2023-02-01T16:59:04;10.30;;;4.13;;
46653;SDS011;38960;51.074;17.004;2023-02-01T17:01:30;9.18;;;3.53;;
46653;SDS011;38960;51.074;17.004;2023-02-01T17:03:56;8.65;;;3.85;;
46653;SDS011;38960;51.074;17.004;2023-02-01T17:06:23;10.30;;;4.10;;
46653;SDS011;38960;51.074;17.004;2023-02-01T17:08:50;10.30;;;3.67;;
46653;SDS011;38960;51.074;17.004;2023-02-01T17:11:18;11.50;;;4.15;;
46653;SDS011;38960;51.074;17.004;2023-02-01T17:13:44;8.50;;;4.22;;
46653;SDS011;38960;51.074;17.004;2023-02-01T17:18:46;9.20;;;3.92;;
46653;SDS011;38960;51.074;17.004;2023-02-01T17:21:16;9.90;;;4.07;;
46653;SDS011;38960;51.074;17.004;2023-02-01T17:23:41;9.75;;;4.00;;